Time;durP1;ratioP1;P1;durP2;ratioP2;P2;SDS_P1;SDS_P2;PMS_P1;PMS_P2;Temp;Humidity;BMP_temperature;BMP_pressure;BME280_temperature;BME280_humidity;BME280_pressure;Samples;Min_cycle;Max_cycle;Signal;HPM_P1;HPM_P2
2023/08/10 00:00:12;;;;;;;5.70;4.15;;;;;;;17.01;77.77;99625.00;4936660;28;20043;-65
2023/08/10 00:02:40;;;;;;;;;;;;;;;17.05;77.65;99624.53;4943765;28;20405;-68
2023/08/10 00:05:06;;;;;;;10.02;4.07;;;;;;;16.93;77.02;99624.91;4957309;28;19929;-66
2023/08/10 00:07:33;;;;;;;11.77;4.80;;;;;;;16.86;77.35;99634.56;4939424;28;20421;-71
2023/08/10 00:09:58;;;;;;;9.80;4.43;;;;;;;16.81;77.80;99632.34;4939659;28;20050;-67
2023/08/10 00:12:25;;;;;;;7.10;4.72;;;;;;;16.80;78.04;99629.81;4939327;28;20046;-67
2023/08/10 00:15:16;;;;;;;7.85;4.95;;;;;;;16.87;78.24;99631.75;4938058;28;20051;-66
2023/08/10 00:17:41;;;;;;;6.43;4.32;;;;;;;16.79;77.91;99638.88;4941998;28;20057;-68
2023/08/10 00:20:10;;;;;;;6.63;4.35;;;;;;;16.76;77.94;99649.94;4951503;28;20414;-70
2023/08/10 00:25:27;;;;;;;6.80;4.13;;;;;;;16.76;78.04;99649.94;4926218;29;20047;-72
2023/08/10 00:27:55;;;;;;;6.55;4.07;;;;;;;16.74;78.09;99642.00;4931374;28;20069;-71
2023/08/10 00:30:22;;;;;;;6.85;4.95;;;;;;;16.73;77.75;99644.84;4939398;28;20042;-70
2023/08/10 00:32:47;;;;;;;8.30;4.60;;;;;;;16.70;77.67;99648.69;4940733;28;20058;-70
2023/08/10 00:35:18;;;;;;;8.15;4.95;;;;;;;16.67;77.74;99674.06;4955864;28;20050;-68
2023/08/10 00:37:46;;;;;;;8.70;4.93;;;;;;;16.66;78.08;99676.91;4958083;28;20505;-70
2023/08/10 00:40:14;;;;;;;9.43;5.00;;;;;;;16.66;77.87;99649.97;4958004;28;20038;-70
2023/08/10 00:42:39;;;;;;;10.00;4.88;;;;;;;16.65;77.98;99650.97;4923254;28;20046;-68
2023/08/10 00:45:32;;;;;;;6.70;4.60;;;;;;;16.64;77.82;99663.59;4938926;28;20054;-70
2023/08/10 00:48:01;;;;;;;6.07;4.88;;;;;;;16.61;78.03;99660.28;4937632;28;20417;-70
2023/08/10 00:50:31;;;;;;;8.95;5.22;;;;;;;16.58;77.76;99648.00;4938568;28;20046;-68
2023/08/10 00:52:56;;;;;;;8.88;4.75;;;;;;;16.57;78.06;99669.69;4921511;28;20050;-67
2023/08/10 00:55:24;;;;;;;12.02;6.22;;;;;;;16.53;78.18;99671.81;4938474;28;20043;-67
2023/08/10 00:57:50;;;;;;;9.10;5.75;;;;;;;16.54;78.24;99672.66;4936252;28;20062;-68
2023/08/10 01:00:19;;;;;;;6.78;4.95;;;;;;;16.54;78.26;99699.56;4920515;28;20054;-66
2023/08/10 01:02:47;;;;;;;9.68;4.78;;;;;;;16.52;77.84;99674.63;4945068;28;20045;-67
2023/08/10 01:05:17;;;;;;;10.55;4.65;;;;;;;16.52;78.27;99685.41;4935400;28;20051;-67
2023/08/10 01:08:18;;;;;;;8.85;4.63;;;;;;;16.51;78.22;99684.56;4937993;28;20545;-66
2023/08/10 01:10:52;;;;;;;10.93;4.50;;;;;;;16.50;77.86;99692.78;4938229;28;20051;-62
2023/08/10 01:13:46;;;;;;;7.45;4.60;;;;;;;16.51;78.32;99697.16;4936175;28;20046;-62
2023/08/10 01:16:17;;;;;;;8.50;5.05;;;;;;;16.46;78.10;99704.84;4925371;28;20410;-63
2023/08/10 01:18:47;;;;;;;6.83;4.40;;;;;;;16.44;78.25;99699.59;4934861;28;20046;-61
2023/08/10 01:21:27;;;;;;;6.68;4.47;;;;;;;16.45;78.07;99722.81;4905200;28;20062;-61
2023/08/10 01:24:08;;;;;;;13.02;5.85;;;;;;;16.40;77.97;99700.88;4937554;28;20042;-63
2023/08/10 01:26:35;;;;;;;6.25;4.25;;;;;;;16.31;78.08;99704.44;4935102;28;20489;-62
2023/08/10 01:29:16;;;;;;;6.32;4.15;;;;;;;16.29;78.49;99709.09;4933967;28;20049;-61
2023/08/10 01:31:44;;;;;;;7.55;4.55;;;;;;;16.26;78.72;99712.94;4931936;28;20888;-62
2023/08/10 01:34:29;;;;;;;9.50;4.40;;;;;;;16.23;78.69;99712.38;4943877;28;20497;-62
2023/08/10 01:36:55;;;;;;;7.35;4.32;;;;;;;16.21;79.01;99719.75;4937803;28;20042;-61
2023/08/10 01:39:24;;;;;;;8.05;4.90;;;;;;;16.20;79.08;99718.03;4920306;28;20885;-61
2023/08/10 01:41:49;;;;;;;8.85;4.80;;;;;;;16.20;78.91;99718.03;4936582;28;20054;-63
2023/08/10 01:44:16;;;;;;;8.05;4.88;;;;;;;16.19;79.37;99724.41;4919057;28;20536;-61
2023/08/10 01:46:44;;;;;;;10.45;4.70;;;;;;;16.19;79.04;99725.28;4935883;28;20248;-62
2023/08/10 01:49:11;;;;;;;7.07;5.45;;;;;;;16.18;79.29;99731.63;4935803;28;20055;-60
2023/08/10 01:51:39;;;;;;;7.47;5.32;;;;;;;16.18;79.29;99737.00;4933587;28;20058;-61
2023/08/10 01:54:08;;;;;;;6.05;4.50;;;;;;;16.17;79.40;99734.47;4924538;28;20038;-62
2023/08/10 01:56:33;;;;;;;9.55;5.20;;;;;;;16.17;79.50;99731.78;4937456;28;20657;-62
2023/08/10 01:58:58;;;;;;;9.75;5.00;;;;;;;16.16;79.14;99733.63;4937405;28;20061;-63
2023/08/10 02:01:29;;;;;;;5.90;4.53;;;;;;;16.16;79.34;99730.94;4937047;28;20046;-62
2023/08/10 02:03:54;;;;;;;5.40;4.28;;;;;;;16.17;79.47;99745.22;4937483;28;20045;-63
2023/08/10 02:06:25;;;;;;;15.57;5.22;;;;;;;16.19;79.40;99744.09;4935377;28;20050;-62
2023/08/10 02:08:52;;;;;;;10.40;4.80;;;;;;;16.20;79.42;99750.31;4934238;28;20054;-62
2023/08/10 02:11:18;;;;;;;6.68;4.35;;;;;;;16.20;79.76;99740.41;4935799;28;20057;-62
2023/08/10 02:13:45;;;;;;;7.93;4.50;;;;;;;16.22;79.43;99742.97;4919111;28;20046;-63
2023/08/10 02:16:11;;;;;;;7.95;5.15;;;;;;;16.23;79.21;99750.91;4935910;28;20053;-63
2023/08/10 02:18:39;;;;;;;13.38;4.63;;;;;;;16.25;79.27;99743.50;4936183;28;20057;-63
2023/08/10 02:21:12;;;;;;;7.50;4.90;;;;;;;16.28;79.02;99753.16;4937029;28;20046;-67
2023/08/10 02:23:40;;;;;;;9.48;5.07;;;;;;;16.30;78.92;99752.00;4935671;28;20039;-67
2023/08/10 02:26:05;;;;;;;7.10;4.40;;;;;;;16.34;78.86;99763.34;4935472;28;20057;-67
2023/08/10 02:28:34;;;;;;;6.68;4.75;;;;;;;16.37;78.72;99767.56;4934830;28;20058;-65
2023/08/10 02:30:59;;;;;;;14.20;4.72;;;;;;;16.41;78.44;99769.00;4935945;28;20395;-65
2023/08/10 02:33:24;;;;;;;6.18;4.53;;;;;;;16.43;78.28;99773.25;4918524;28;20046;-67
2023/08/10 02:35:51;;;;;;;6.60;4.78;;;;;;;16.47;77.96;99800.72;4947813;28;20051;-67
2023/08/10 02:38:16;;;;;;;6.20;4.57;;;;;;;16.52;77.77;99774.22;4931715;28;20065;-69
2023/08/10 02:40:42;;;;;;;8.00;5.28;;;;;;;16.57;77.59;99780.03;4934077;28;20050;-69
2023/08/10 02:46:03;;;;;;;6.18;4.57;;;;;;;16.63;76.55;99785.69;4934975;28;20065;-67
2023/08/10 02:48:28;;;;;;;7.20;4.22;;;;;;;16.72;76.63;99805.50;4931559;28;20046;-66
2023/08/10 02:50:54;;;;;;;8.07;4.93;;;;;;;16.78;76.48;99783.41;4934425;28;20050;-66
2023/08/10 02:53:19;;;;;;;7.50;4.68;;;;;;;16.87;76.17;99781.69;4932932;28;20054;-70
2023/08/10 02:55:44;;;;;;;6.45;4.60;;;;;;;16.93;75.92;99803.47;4933656;28;20042;-69
2023/08/10 02:58:20;;;;;;;9.07;4.50;;;;;;;17.06;75.72;99798.63;4932923;28;20486;-72
2023/08/10 03:00:46;;;;;;;5.85;4.13;;;;;;;17.13;75.09;99787.28;4935811;28;20042;-71
2023/08/10 03:03:12;;;;;;;13.95;5.05;;;;;;;17.19;74.79;99782.13;4934593;28;20539;-71
2023/08/10 03:05:37;;;;;;;7.05;4.43;;;;;;;17.28;74.53;99786.63;4934285;28;20039;-71
2023/08/10 03:08:03;;;;;;;6.82;4.85;;;;;;;17.38;74.43;99789.28;4934487;28;20062;-71
2023/08/10 03:10:31;;;;;;;11.43;5.00;;;;;;;17.49;74.04;99794.50;4918232;28;20050;-71
2023/08/10 03:12:58;;;;;;;7.65;4.97;;;;;;;17.59;73.21;99791.72;4936186;28;20065;-72
2023/08/10 03:15:27;;;;;;;11.73;4.05;;;;;;;17.69;72.79;99790.72;4937839;28;20035;-70
2023/08/10 03:17:56;;;;;;;9.18;4.45;;;;;;;17.81;72.73;99793.19;4937967;28;20061;-70
2023/08/10 03:20:22;;;;;;;7.75;4.78;;;;;;;17.89;72.27;99796.81;4937678;28;20069;-71
2023/08/10 03:23:11;;;;;;;10.15;5.28;;;;;;;18.10;71.54;99799.22;4939048;28;20382;-71
2023/08/10 03:25:37;;;;;;;7.55;4.32;;;;;;;18.08;71.40;99812.00;4937700;28;20050;-71
2023/08/10 03:28:04;;;;;;;6.72;4.95;;;;;;;18.16;70.95;99765.38;4938303;28;20515;-72
2023/08/10 03:30:56;;;;;;;7.45;3.88;;;;;;;18.26;70.89;99810.19;4940016;28;20042;-71
2023/08/10 03:33:24;;;;;;;6.28;4.35;;;;;;;18.31;70.13;99801.59;4938978;28;20050;-72
2023/08/10 03:35:53;;;;;;;7.10;4.47;;;;;;;18.37;70.10;99795.59;4921594;28;20053;-71
2023/08/10 03:38:25;;;;;;;7.40;4.85;;;;;;;18.46;69.75;99800.91;4938922;28;20517;-72
2023/08/10 03:40:54;;;;;;;6.68;4.63;;;;;;;18.62;69.70;99812.88;4940253;28;20043;-71
2023/08/10 03:43:28;;;;;;;6.32;3.97;;;;;;;18.74;69.50;99808.91;4939959;28;20051;-72
2023/08/10 03:45:57;;;;;;;8.70;4.35;;;;;;;18.88;68.68;99816.44;4938548;28;20039;-72
2023/08/10 03:48:26;;;;;;;13.25;5.93;;;;;;;19.00;68.15;99809.75;4938564;28;20050;-70
2023/08/10 03:50:56;;;;;;;12.10;4.90;;;;;;;19.14;67.83;99822.69;4939736;28;20049;-70
2023/08/10 03:53:26;;;;;;;11.07;4.82;;;;;;;19.21;67.29;99826.44;4938449;28;20387;-69
2023/08/10 03:55:53;;;;;;;9.55;4.57;;;;;;;19.33;66.85;99826.16;4939484;28;20043;-69
2023/08/10 03:58:21;;;;;;;11.90;5.15;;;;;;;19.44;66.30;99825.88;4922322;28;20047;-69
2023/08/10 04:00:47;;;;;;;8.65;4.40;;;;;;;19.52;66.23;99820.56;4939963;28;20046;-69
2023/08/10 04:03:17;;;;;;;7.20;4.50;;;;;;;19.62;65.69;99818.56;4938471;28;20047;-70
2023/08/10 04:05:45;;;;;;;10.45;4.70;;;;;;;19.69;65.27;99843.94;4938046;28;20058;-70
2023/08/10 04:08:10;;;;;;;11.68;5.10;;;;;;;19.78;65.03;99821.31;4939303;28;20062;-70
2023/08/10 04:10:37;;;;;;;10.27;4.70;;;;;;;19.90;64.93;99846.22;4939670;28;20123;-70
2023/08/10 04:13:03;;;;;;;10.55;5.25;;;;;;;20.01;64.50;99847.78;4922385;28;20127;-70
2023/08/10 04:15:32;;;;;;;7.65;4.70;;;;;;;20.12;64.30;99851.00;4938317;28;20047;-71
2023/08/10 04:18:25;;;;;;;7.60;4.57;;;;;;;20.35;63.93;99828.72;4937939;28;20054;-71
2023/08/10 04:23:44;;;;;;;8.83;4.63;;;;;;;20.82;62.74;99832.50;4938854;28;20043;-71
2023/08/10 04:26:14;;;;;;;9.55;5.00;;;;;;;21.06;62.09;99839.75;4938944;28;20784;-70
2023/08/10 04:28:41;;;;;;;13.57;5.22;;;;;;;21.32;61.25;99834.13;4938886;28;20430;-71
2023/08/10 04:31:08;;;;;;;6.00;4.53;;;;;;;21.59;60.26;99830.13;4938920;28;20043;-70
2023/08/10 04:33:33;;;;;;;9.27;5.13;;;;;;;21.89;59.55;99837.47;4938936;28;20054;-70
2023/08/10 04:35:58;;;;;;;8.60;4.78;;;;;;;22.21;58.52;99824.75;4937575;28;20038;-72
2023/08/10 04:38:24;;;;;;;8.05;4.95;;;;;;;22.52;57.57;99838.28;4938882;28;20477;-71
2023/08/10 04:40:50;;;;;;;10.27;4.25;;;;;;;22.81;56.33;99828.38;4938648;28;20045;-70
2023/08/10 04:43:17;;;;;;;6.25;4.50;;;;;;;23.02;55.09;99826.84;4938682;28;20413;-70
2023/08/10 04:45:47;;;;;;;8.27;4.95;;;;;;;23.28;54.78;99826.38;4937302;28;20050;-70
2023/08/10 04:48:13;;;;;;;12.27;5.07;;;;;;;23.53;53.66;99822.41;4938564;28;20070;-71
2023/08/10 04:50:40;;;;;;;7.72;4.38;;;;;;;23.79;53.32;99855.44;4938707;28;20437;-70
2023/08/10 04:53:05;;;;;;;8.02;4.90;;;;;;;24.04;52.57;99831.41;4938316;28;20387;-71
2023/08/10 04:55:31;;;;;;;11.98;5.47;;;;;;;24.21;52.06;99859.28;4938489;28;20038;-71
2023/08/10 04:57:57;;;;;;;6.28;4.82;;;;;;;24.36;51.47;99826.56;4938543;28;20050;-70
2023/08/10 05:00:24;;;;;;;12.52;4.45;;;;;;;24.58;51.45;99841.91;4937168;28;20058;-70
2023/08/10 05:02:51;;;;;;;6.68;4.20;;;;;;;24.72;50.08;99830.06;4936710;28;20054;-70
2023/08/10 05:05:17;;;;;;;11.85;5.03;;;;;;;24.72;50.41;99827.31;4938305;28;20054;-70
2023/08/10 05:07:43;;;;;;;10.48;5.03;;;;;;;24.68;50.37;99834.22;4938480;28;20062;-71
2023/08/10 05:10:09;;;;;;;9.93;5.07;;;;;;;24.81;50.22;99849.88;4938504;28;20047;-70
2023/08/10 05:12:38;;;;;;;7.32;4.70;;;;;;;25.03;49.49;99835.19;4944625;28;20050;-70
2023/08/10 05:15:06;;;;;;;12.63;6.18;;;;;;;25.18;49.25;99830.44;4947252;28;20046;-70
2023/08/10 05:18:02;;;;;;;8.07;4.90;;;;;;;25.21;48.63;99835.53;4945686;28;20058;-71
2023/08/10 05:20:28;;;;;;;10.55;5.53;;;;;;;25.31;48.94;99826.97;4940087;28;20050;-70
2023/08/10 05:22:53;;;;;;;19.02;7.78;;;;;;;25.29;48.60;99838.09;4937619;28;20050;-69
2023/08/10 05:25:19;;;;;;;8.70;4.57;;;;;;;25.49;48.43;99840.13;4939433;28;20061;-70
2023/08/10 05:27:48;;;;;;;9.50;5.88;;;;;;;25.56;48.51;99833.63;4937881;28;20066;-68
2023/08/10 05:30:13;;;;;;;8.48;5.50;;;;;;;25.78;48.20;99825.38;4938121;28;20058;-70
2023/08/10 05:32:40;;;;;;;11.30;5.47;;;;;;;26.12;47.88;99849.91;4938010;28;20069;-69
2023/08/10 05:35:07;;;;;;;10.02;5.30;;;;;;;26.58;46.79;99800.81;4935946;28;20521;-70
2023/08/10 05:37:58;;;;;;;12.95;4.90;;;;;;;27.02;45.28;99834.94;4937704;28;20050;-69
2023/08/10 05:40:24;;;;;;;9.45;4.78;;;;;;;27.38;44.84;99845.44;4936594;28;20485;-70
2023/08/10 05:42:51;;;;;;;11.40;5.22;;;;;;;27.78;44.56;99846.19;4936011;28;20057;-71
2023/08/10 05:45:20;;;;;;;13.80;5.80;;;;;;;28.31;43.31;99852.34;4936272;28;20530;-69
2023/08/10 05:47:50;;;;;;;9.30;5.07;;;;;;;28.87;42.41;99852.41;4937583;28;20502;-69
2023/08/10 05:50:41;;;;;;;11.30;5.30;;;;;;;29.53;40.75;99846.34;4937648;28;20055;-69
2023/08/10 05:55:59;;;;;;;6.53;4.68;;;;;;;30.80;38.12;99851.91;4937784;28;20049;-69
2023/08/10 05:58:29;;;;;;;8.18;5.50;;;;;;;31.29;37.35;99843.25;4920233;28;20053;-70
2023/08/10 06:01:01;;;;;;;8.57;4.95;;;;;;;31.73;36.35;99846.47;4937304;28;20054;-71
2023/08/10 06:03:31;;;;;;;7.53;4.43;;;;;;;32.05;35.36;99861.53;4938510;28;20043;-71
2023/08/10 06:06:25;;;;;;;12.50;4.63;;;;;;;32.49;34.96;99844.47;4937466;28;20058;-70
2023/08/10 06:08:54;;;;;;;6.70;4.68;;;;;;;32.93;34.43;99849.16;4937632;28;20580;-71
2023/08/10 06:11:19;;;;;;;6.90;4.55;;;;;;;33.45;33.59;99846.97;4936333;28;20066;-72
2023/08/10 06:13:46;;;;;;;11.10;5.35;;;;;;;33.65;32.92;99849.19;4952426;28;20134;-71
2023/08/10 06:16:11;;;;;;;10.35;5.28;;;;;;;33.98;32.85;99859.31;4938123;28;20043;-72
2023/08/10 06:18:38;;;;;;;7.25;4.90;;;;;;;34.52;31.96;99837.31;4939529;28;20062;-72
2023/08/10 06:21:06;;;;;;;5.75;4.72;;;;;;;35.06;31.31;99815.91;4920221;28;20055;-71
2023/08/10 06:23:36;;;;;;;6.63;4.70;;;;;;;35.51;30.65;99812.66;4937879;28;20801;-71
2023/08/10 06:26:05;;;;;;;6.35;5.13;;;;;;;35.64;30.56;99820.50;4937908;28;20047;-72
2023/08/10 06:28:33;;;;;;;8.25;5.28;;;;;;;36.04;29.74;99816.25;4935160;28;20050;-71
2023/08/10 06:31:02;;;;;;;7.55;5.03;;;;;;;36.63;29.11;99865.84;4936790;28;20058;-71
2023/08/10 06:33:27;;;;;;;5.88;4.40;;;;;;;37.30;28.29;99870.38;4935634;28;20054;-70
2023/08/10 06:35:57;;;;;;;5.25;4.72;;;;;;;37.98;27.01;99866.06;4936794;28;20045;-69
2023/08/10 06:38:49;;;;;;;7.82;5.63;;;;;;;38.90;26.62;99885.94;4936726;28;20490;-69
2023/08/10 06:41:16;;;;;;;7.28;4.93;;;;;;;39.73;25.54;99874.63;4936427;28;20042;-70
2023/08/10 06:44:08;;;;;;;8.70;5.32;;;;;;;40.44;24.59;99879.38;4936624;28;20406;-70
2023/08/10 06:46:34;;;;;;;6.72;5.30;;;;;;;40.67;24.31;99891.63;4936347;28;20050;-70
2023/08/10 06:49:03;;;;;;;7.72;5.63;;;;;;;41.09;23.55;99876.72;4936401;28;20043;-70
2023/08/10 06:51:28;;;;;;;8.77;6.10;;;;;;;41.50;23.42;99882.47;4936594;28;20046;-70
2023/08/10 06:53:53;;;;;;;6.55;5.85;;;;;;;41.90;23.28;99861.25;4935347;28;20409;-68
2023/08/10 06:56:23;;;;;;;7.55;5.50;;;;;;;41.84;22.95;99865.31;4936518;28;20050;-69
2023/08/10 06:58:48;;;;;;;8.55;6.53;;;;;;;41.87;22.71;99864.72;4935174;28;20045;-68
2023/08/10 07:01:14;;;;;;;6.55;5.80;;;;;;;42.09;22.59;99869.59;4936295;28;20042;-69
2023/08/10 07:03:42;;;;;;;6.63;6.03;;;;;;;42.37;22.02;99874.03;4936388;28;20054;-69
2023/08/10 07:06:37;;;;;;;8.30;5.82;;;;;;;43.03;21.71;99875.28;4936447;28;20061;-69
2023/08/10 07:09:04;;;;;;;8.48;6.15;;;;;;;43.34;20.98;99883.81;4935077;28;20414;-68
2023/08/10 07:11:31;;;;;;;6.80;6.15;;;;;;;43.72;20.79;99887.00;4936286;28;20043;-69
2023/08/10 07:13:58;;;;;;;7.03;6.32;;;;;;;43.95;20.48;99879.31;4935102;28;20047;-70
2023/08/10 07:16:31;;;;;;;7.50;6.35;;;;;;;44.05;20.21;99889.47;4936834;28;20035;-69
2023/08/10 07:18:57;;;;;;;9.10;7.07;;;;;;;43.95;20.25;99881.31;4944372;28;20057;-68
2023/08/10 07:21:46;;;;;;;10.30;7.70;;;;;;;44.13;20.02;99869.84;4936275;28;20046;-69
2023/08/10 07:27:13;;;;;;;8.98;7.30;;;;;;;44.94;19.68;99877.72;4936019;28;20059;-69
2023/08/10 07:29:43;;;;;;;11.40;8.33;;;;;;;45.51;19.12;99889.59;4934973;28;20038;-69
2023/08/10 07:32:10;;;;;;;9.38;7.72;;;;;;;46.08;18.67;99892.03;4934845;28;20051;-69
2023/08/10 07:34:39;;;;;;;11.95;8.43;;;;;;;46.81;17.71;99872.84;4936206;28;20054;-68
2023/08/10 07:37:08;;;;;;;9.85;8.77;;;;;;;47.11;17.68;99864.28;4936398;28;20520;-69
2023/08/10 07:39:35;;;;;;;8.73;7.80;;;;;;;47.12;17.44;99872.41;4936281;28;20047;-68
2023/08/10 07:42:02;;;;;;;9.15;8.18;;;;;;;46.58;17.62;99877.16;4934795;28;20046;-68
2023/08/10 07:44:27;;;;;;;10.30;8.25;;;;;;;45.26;18.28;99872.75;4936374;28;20046;-69
2023/08/10 07:46:53;;;;;;;10.13;7.55;;;;;;;44.99;18.86;99863.50;4935186;28;20054;-69
2023/08/10 07:49:23;;;;;;;8.60;7.88;;;;;;;45.33;18.34;99873.06;4936082;28;20387;-69
2023/08/10 07:51:52;;;;;;;9.32;8.20;;;;;;;45.72;17.85;99858.69;4934953;28;20053;-67
2023/08/10 07:54:23;;;;;;;9.00;8.10;;;;;;;45.78;17.53;99884.72;4936165;28;20046;-68
2023/08/10 07:56:48;;;;;;;9.30;8.35;;;;;;;44.92;18.25;99868.81;4935961;28;20046;-67
2023/08/10 07:59:16;;;;;;;8.70;7.40;;;;;;;44.02;19.42;99856.41;4938580;28;20406;-69
2023/08/10 08:01:51;;;;;;;;;;;;;;;44.78;18.46;99862.53;4922247;28;20407;-68
2023/08/10 08:04:17;;;;;;;12.45;6.45;;;;;;;42.25;20.70;99864.47;4939543;28;19918;-68
2023/08/10 08:06:43;;;;;;;12.30;6.78;;;;;;;41.17;21.41;99867.69;4939342;28;20043;-68
2023/08/10 08:09:08;;;;;;;9.07;6.68;;;;;;;41.62;21.12;99868.00;4939676;28;20046;-67
2023/08/10 08:11:36;;;;;;;7.53;6.55;;;;;;;42.95;20.30;99855.59;4939350;28;20401;-68
2023/08/10 08:14:02;;;;;;;7.35;6.50;;;;;;;44.45;19.04;99862.97;4939961;28;20497;-69
2023/08/10 08:16:30;;;;;;;11.45;8.00;;;;;;;46.06;17.89;99860.53;4937668;28;20065;-68
2023/08/10 08:19:00;;;;;;;10.18;9.05;;;;;;;46.47;17.34;99873.09;4939344;28;20054;-69
2023/08/10 08:21:27;;;;;;;9.30;8.30;;;;;;;44.74;18.44;99865.16;4939228;28;20050;-69
2023/08/10 08:24:00;;;;;;;8.75;7.68;;;;;;;42.59;20.40;99858.41;4939418;28;20046;-69
2023/08/10 08:26:30;;;;;;;8.52;7.68;;;;;;;41.29;21.63;99856.84;4939048;28;20038;-67
2023/08/10 08:29:23;;;;;;;7.90;7.15;;;;;;;42.24;20.62;99857.22;4900660;29;20058;-67
2023/08/10 08:31:52;;;;;;;7.63;6.93;;;;;;;43.23;19.90;99851.50;4900824;29;20039;-68
2023/08/10 08:35:12;;;;;;;8.05;6.13;;;;;;;42.86;20.02;99857.53;4900750;29;20051;-67
2023/08/10 08:37:38;;;;;;;12.50;6.57;;;;;;;41.15;21.62;99857.91;4900945;29;20047;-67
2023/08/10 08:40:05;;;;;;;6.63;6.00;;;;;;;41.31;21.28;99881.72;4900749;29;20047;-68
2023/08/10 08:42:35;;;;;;;7.90;6.50;;;;;;;42.32;20.53;99864.91;4899971;29;20051;-71
2023/08/10 08:45:02;;;;;;;13.15;7.25;;;;;;;44.00;19.28;99859.56;4900849;29;20051;-70
2023/08/10 08:47:32;;;;;;;8.60;7.22;;;;;;;44.86;18.59;99865.31;4899172;29;20063;-71
2023/08/10 08:49:59;;;;;;;7.97;6.95;;;;;;;43.54;19.33;99878.78;4900482;29;20406;-70
2023/08/10 08:52:26;;;;;;;9.85;6.80;;;;;;;41.53;20.83;99869.84;4899156;29;20043;-70
2023/08/10 08:54:57;;;;;;;10.02;6.30;;;;;;;40.16;22.21;99866.34;4900283;29;20051;-70
2023/08/10 08:57:29;;;;;;;7.43;6.65;;;;;;;41.33;21.79;99866.25;4900653;29;20055;-70
2023/08/10 08:59:56;;;;;;;8.18;7.35;;;;;;;43.29;20.58;99861.47;4900150;29;20043;-71
2023/08/10 09:05:14;;;;;;;9.07;7.57;;;;;;;46.39;17.25;99869.19;4900377;29;20526;-70
2023/08/10 09:07:42;;;;;;;10.52;8.75;;;;;;;47.21;16.71;99866.66;4899243;29;20055;-71
2023/08/10 09:10:10;;;;;;;9.50;8.73;;;;;;;48.04;16.26;99874.84;4899191;29;20494;-71
2023/08/10 09:12:37;;;;;;;11.30;10.40;;;;;;;48.71;15.54;99881.84;4900523;29;20185;-72
2023/08/10 09:15:09;;;;;;;10.70;9.82;;;;;;;48.60;14.87;99881.53;4899585;29;20415;-73
2023/08/10 09:17:51;;;;;;;10.87;10.10;;;;;;;47.62;15.81;99877.88;4900458;29;20047;-73
2023/08/10 09:20:25;;;;;;;9.00;8.10;;;;;;;45.55;17.07;99884.97;4900398;29;20283;-72
2023/08/10 09:22:52;;;;;;;8.50;7.20;;;;;;;43.19;18.87;99872.97;4914664;29;20050;-73
2023/08/10 09:25:19;;;;;;;7.32;6.60;;;;;;;41.10;20.26;99880.34;4900203;29;20039;-73
2023/08/10 09:27:47;;;;;;;7.15;6.25;;;;;;;39.07;22.01;99886.41;4914247;28;20129;-73
2023/08/10 09:30:15;;;;;;;5.80;5.30;;;;;;;37.38;23.94;99873.44;4937829;28;20049;-73
2023/08/10 09:32:46;;;;;;;6.70;5.35;;;;;;;36.15;25.74;99890.13;4920749;28;20053;-73
2023/08/10 09:35:17;;;;;;;8.07;5.38;;;;;;;34.99;27.62;99859.63;4938274;28;20046;-71
2023/08/10 09:37:47;;;;;;;6.95;4.97;;;;;;;34.14;28.61;99847.38;4936334;28;20051;-73
2023/08/10 09:43:10;;;;;;;6.00;5.20;;;;;;;34.19;29.53;99888.94;4938128;28;20050;-72
2023/08/10 09:46:11;;;;;;;8.30;6.13;;;;;;;37.35;26.36;99848.16;4937504;28;20049;-73
2023/08/10 09:48:42;;;;;;;8.07;5.88;;;;;;;39.66;23.50;99860.19;4936082;28;20494;-74
2023/08/10 09:51:09;;;;;;;8.00;5.53;;;;;;;41.46;21.76;99852.59;4937710;28;20405;-72
2023/08/10 09:53:40;;;;;;;6.68;5.93;;;;;;;42.00;20.51;99891.91;4937785;28;20062;-73
2023/08/10 09:56:10;;;;;;;6.93;6.28;;;;;;;41.62;21.07;99880.03;4942059;28;20069;-69
2023/08/10 09:58:37;;;;;;;7.28;5.70;;;;;;;41.97;20.70;99892.53;4937154;28;20072;-68
2023/08/10 10:01:03;;;;;;;7.28;6.00;;;;;;;43.07;19.75;99878.31;4936947;28;20047;-69
2023/08/10 10:03:33;;;;;;;7.25;6.55;;;;;;;44.04;18.70;99885.81;4933201;28;20031;-69
2023/08/10 10:06:00;;;;;;;8.80;7.90;;;;;;;44.43;18.69;99878.50;4935133;28;20046;-69
2023/08/10 10:08:29;;;;;;;7.70;6.93;;;;;;;44.38;18.35;99890.72;4937271;28;20042;-68
2023/08/10 10:10:59;;;;;;;9.23;8.10;;;;;;;44.27;18.64;99880.09;4937199;28;20047;-67
2023/08/10 10:16:23;;;;;;;11.27;9.98;;;;;;;45.57;17.61;99881.81;4937477;28;20053;-68
2023/08/10 10:18:50;;;;;;;10.23;9.23;;;;;;;45.72;17.53;99886.03;4937328;28;20062;-69
2023/08/10 10:21:17;;;;;;;10.30;9.50;;;;;;;45.46;17.33;99901.03;4935489;28;20049;-69
2023/08/10 10:23:42;;;;;;;9.60;8.90;;;;;;;45.68;16.27;99887.91;4935820;28;20057;-70
2023/08/10 10:26:10;;;;;;;15.20;9.90;;;;;;;46.33;16.06;99883.81;4936980;28;20513;-70
2023/08/10 10:28:39;;;;;;;10.95;10.15;;;;;;;46.00;16.26;99878.00;4937112;28;20067;-70
2023/08/10 10:31:11;;;;;;;9.65;8.85;;;;;;;44.35;17.59;99882.97;4936869;28;20050;-70
2023/08/10 10:33:55;;;;;;;8.05;7.35;;;;;;;42.79;19.30;99893.56;4919344;28;20481;-70
2023/08/10 10:39:23;;;;;;;11.15;6.68;;;;;;;38.95;22.68;99888.69;4936374;28;20042;-69
2023/08/10 10:41:52;;;;;;;7.13;6.13;;;;;;;37.54;24.19;99890.94;4935445;28;20061;-69
2023/08/10 10:44:21;;;;;;;5.90;5.30;;;;;;;36.34;24.65;99896.91;4937076;28;20050;-71
2023/08/10 10:46:46;;;;;;;8.43;5.65;;;;;;;35.29;25.97;99859.09;4936793;28;20051;-70
2023/08/10 10:49:23;;;;;;;6.00;5.03;;;;;;;34.39;27.74;99884.78;4937031;28;20046;-70
2023/08/10 10:51:58;;;;;;;7.90;4.82;;;;;;;33.37;29.35;99894.38;4936602;28;20050;-67
2023/08/10 10:54:25;;;;;;;8.00;4.88;;;;;;;32.64;30.58;99894.41;4936576;28;20039;-69
2023/08/10 10:56:55;;;;;;;7.60;5.03;;;;;;;31.92;31.79;99900.41;4935446;28;20043;-70
2023/08/10 10:59:24;;;;;;;9.02;4.53;;;;;;;31.20;31.35;99891.50;4936698;28;20053;-69
2023/08/10 11:01:50;;;;;;;5.22;4.32;;;;;;;30.68;32.41;99898.66;4936752;28;20054;-70
2023/08/10 11:04:16;;;;;;;7.18;4.32;;;;;;;30.15;32.50;99895.75;4936440;28;20050;-69
2023/08/10 11:06:43;;;;;;;6.88;4.30;;;;;;;29.74;33.62;99908.25;4932153;28;20043;-69
2023/08/10 11:09:13;;;;;;;6.13;4.40;;;;;;;29.42;33.65;99909.41;4915468;28;20057;-71
2023/08/10 11:11:39;;;;;;;5.78;4.55;;;;;;;29.03;34.60;99889.44;4936471;28;20046;-71
2023/08/10 11:14:05;;;;;;;13.32;5.05;;;;;;;28.79;35.37;99892.97;4918966;28;20055;-69
2023/08/10 11:16:40;;;;;;;5.55;4.53;;;;;;;28.65;36.62;99916.91;4936419;28;20038;-70
2023/08/10 11:19:13;;;;;;;5.65;4.53;;;;;;;28.49;36.50;99899.06;4942389;28;20058;-69
2023/08/10 11:21:44;;;;;;;36.45;5.90;;;;;;;28.30;37.23;99910.13;4935218;28;20054;-74
2023/08/10 11:24:12;;;;;;;4.90;4.18;;;;;;;28.13;37.31;99904.25;4932928;28;20054;-67
2023/08/10 11:26:38;;;;;;;6.85;4.47;;;;;;;28.05;36.89;99901.75;4931508;28;20050;-66
2023/08/10 11:29:05;;;;;;;6.35;4.47;;;;;;;27.93;36.57;99898.00;4936069;28;20062;-66
2023/08/10 11:31:40;;;;;;;7.18;4.50;;;;;;;27.98;36.75;99906.44;4936178;28;20506;-67
2023/08/10 11:34:25;;;;;;;7.22;4.00;;;;;;;28.06;37.45;99920.75;4937584;28;20038;-68
2023/08/10 11:37:17;;;;;;;6.20;4.35;;;;;;;28.12;37.38;99897.09;4926104;28;20034;-67
2023/08/10 11:39:42;;;;;;;7.25;4.45;;;;;;;27.88;37.89;99895.09;4936734;28;20902;-66
2023/08/10 11:42:07;;;;;;;7.65;4.05;;;;;;;27.74;38.20;99899.75;4936601;28;20600;-66
2023/08/10 11:44:47;;;;;;;6.97;4.43;;;;;;;27.76;38.56;99914.94;4926892;28;20924;-67
2023/08/10 11:47:15;;;;;;;15.68;6.45;;;;;;;27.62;37.98;99898.72;4939248;28;20370;-65
2023/08/10 11:49:44;;;;;;;52.70;12.73;;;;;;;27.54;38.04;99905.22;4938039;28;20038;-71
2023/08/10 11:52:15;;;;;;;14.02;5.10;;;;;;;27.45;37.48;99898.28;4937871;28;20066;-69
2023/08/10 11:54:41;;;;;;;7.10;4.28;;;;;;;27.32;37.95;99901.88;4939079;28;20462;-66
2023/08/10 11:57:11;;;;;;;6.63;4.35;;;;;;;27.22;38.18;99906.94;4939505;28;20046;-67
2023/08/10 11:59:40;;;;;;;8.57;4.78;;;;;;;27.07;37.69;99914.53;4937816;28;20046;-66
2023/08/10 12:05:08;;;;;;;8.75;4.38;;;;;;;26.85;38.90;99905.63;4939311;28;20387;-68
2023/08/10 12:07:36;;;;;;;6.97;3.90;;;;;;;26.81;39.29;99907.09;4939135;28;20049;-67
2023/08/10 12:10:01;;;;;;;10.63;4.60;;;;;;;26.80;39.57;99907.31;4937810;28;20042;-67
2023/08/10 12:12:28;;;;;;;11.90;5.43;;;;;;;26.75;39.94;99899.72;4937467;28;20046;-66